createdAt,value
2022-11-23T00:00:42.150Z,4.60
2022-11-23T00:03:16.494Z,4.60
2022-11-23T00:05:43.500Z,4.60
2022-11-23T00:08:10.409Z,4.70
2022-11-23T00:10:37.550Z,4.70
2022-11-23T00:13:04.785Z,4.60
2022-11-23T00:15:32.583Z,4.60
2022-11-23T00:18:02.716Z,4.70
2022-11-23T00:20:29.796Z,4.60
2022-11-23T00:22:57.291Z,4.60
2022-11-23T00:25:24.243Z,4.60
2022-11-23T00:27:51.159Z,4.70
2022-11-23T00:30:18.117Z,4.60
2022-11-23T00:32:45.065Z,4.60
2022-11-23T00:35:12.081Z,4.60
2022-11-23T00:37:39.098Z,4.60
2022-11-23T00:40:06.864Z,4.60
2022-11-23T00:42:37.835Z,4.60
2022-11-23T00:45:05.618Z,4.60
2022-11-23T00:47:33.929Z,4.60
2022-11-23T00:50:00.893Z,4.60
2022-11-23T00:52:27.824Z,4.60
2022-11-23T00:54:54.823Z,4.60
2022-11-23T00:57:21.776Z,4.60
2022-11-23T00:59:49.106Z,4.60
2022-11-23T01:02:16.132Z,4.50
2022-11-23T01:04:43.123Z,4.60
2022-11-23T01:07:10.389Z,4.60
2022-11-23T01:09:37.368Z,4.70
2022-11-23T01:12:06.719Z,4.60
2022-11-23T01:14:33.713Z,4.60
2022-11-23T01:17:04.242Z,4.60
2022-11-23T01:19:34.891Z,4.60
2022-11-23T01:22:01.877Z,4.60
2022-11-23T01:24:28.967Z,4.50
2022-11-23T01:26:56.154Z,4.60
2022-11-23T01:29:24.027Z,4.50
2022-11-23T01:31:51.043Z,4.50
2022-11-23T01:34:18.139Z,4.60
2022-11-23T01:36:45.777Z,4.50
2022-11-23T01:39:13.476Z,4.60
2022-11-23T01:41:43.207Z,4.50
2022-11-23T01:44:31.134Z,4.60
2022-11-23T01:47:00.452Z,4.50
2022-11-23T01:49:36.210Z,4.50
2022-11-23T01:52:09.753Z,4.50
2022-11-23T01:54:51.477Z,4.50
2022-11-23T01:57:22.898Z,4.50
2022-11-23T01:59:51.009Z,4.50
2022-11-23T02:02:18.725Z,4.50
2022-11-23T02:04:48.739Z,4.50
2022-11-23T02:07:18.932Z,4.50
2022-11-23T02:09:47.728Z,4.40
2022-11-23T02:12:15.576Z,4.50
2022-11-23T02:14:44.214Z,4.50
2022-11-23T02:17:11.618Z,4.50
2022-11-23T02:20:06.216Z,4.50
2022-11-23T02:22:51.294Z,4.50
2022-11-23T02:25:39.454Z,4.40
2022-11-23T02:28:07.077Z,4.40
2022-11-23T02:30:36.628Z,4.40
2022-11-23T02:33:07.139Z,4.40
2022-11-23T02:35:35.027Z,4.40
2022-11-23T02:38:05.052Z,4.40
2022-11-23T02:40:36.103Z,4.40
2022-11-23T02:43:03.424Z,4.40
2022-11-23T02:45:49.898Z,4.40
2022-11-23T02:48:17.877Z,4.40
2022-11-23T02:50:45.447Z,4.40
2022-11-23T02:53:13.318Z,4.40
2022-11-23T02:55:40.353Z,4.30
2022-11-23T02:58:08.000Z,4.40
2022-11-23T03:00:35.759Z,4.40
2022-11-23T03:03:03.559Z,4.40
2022-11-23T03:05:30.860Z,4.40
2022-11-23T03:07:57.994Z,4.40
2022-11-23T03:10:25.166Z,4.30
2022-11-23T03:12:55.531Z,4.30
2022-11-23T03:15:24.085Z,4.30
2022-11-23T03:17:52.216Z,4.30
2022-11-23T03:20:20.572Z,4.40
2022-11-23T03:22:50.124Z,4.30
2022-11-23T03:25:18.757Z,4.30
2022-11-23T03:27:48.920Z,4.30
2022-11-23T03:30:16.162Z,4.30
2022-11-23T03:32:43.678Z,4.30
2022-11-23T03:35:10.738Z,4.30
2022-11-23T03:37:50.617Z,4.30
2022-11-23T03:40:17.680Z,4.30
2022-11-23T03:43:03.774Z,4.30
2022-11-23T03:45:32.766Z,4.30
2022-11-23T03:48:00.180Z,4.30
2022-11-23T03:50:29.728Z,4.40
2022-11-23T03:52:57.129Z,4.30
2022-11-23T03:55:24.104Z,4.30
2022-11-23T03:57:59.625Z,4.30
2022-11-23T04:00:29.999Z,4.30
2022-11-23T04:02:58.460Z,4.30
2022-11-23T04:05:45.365Z,4.30
2022-11-23T04:08:22.343Z,4.30
2022-11-23T04:10:50.720Z,4.30
2022-11-23T04:13:22.782Z,4.30
2022-11-23T04:15:49.991Z,4.20
2022-11-23T04:18:17.206Z,4.30
2022-11-23T04:20:44.285Z,4.20
2022-11-23T04:23:13.583Z,4.20
2022-11-23T04:25:42.065Z,4.20
2022-11-23T04:28:09.903Z,4.20
2022-11-23T04:30:37.363Z,4.20
2022-11-23T04:33:04.360Z,4.20
2022-11-23T04:35:31.453Z,4.20
2022-11-23T04:37:58.711Z,4.30
2022-11-23T04:40:29.083Z,4.20
2022-11-23T04:43:01.552Z,4.20
2022-11-23T04:45:31.754Z,4.20
2022-11-23T04:48:03.367Z,4.20
2022-11-23T04:50:34.181Z,4.20
2022-11-23T04:53:01.290Z,4.20
2022-11-23T04:55:36.815Z,4.20
2022-11-23T04:58:04.433Z,4.20
2022-11-23T05:00:34.176Z,4.20
2022-11-23T05:03:03.356Z,4.20
2022-11-23T05:05:32.846Z,4.20
2022-11-23T05:08:00.662Z,4.20
2022-11-23T05:10:40.886Z,4.20
2022-11-23T05:13:08.474Z,4.20
2022-11-23T05:15:35.825Z,4.20
2022-11-23T05:18:07.575Z,4.20
2022-11-23T05:20:36.116Z,4.10
2022-11-23T05:23:03.303Z,4.20
2022-11-23T05:25:32.303Z,4.20
2022-11-23T05:28:11.390Z,4.20
2022-11-23T05:30:50.522Z,4.30
2022-11-23T05:33:17.857Z,4.20
2022-11-23T05:35:45.175Z,4.20
2022-11-23T05:38:12.276Z,4.20
2022-11-23T05:40:39.505Z,4.20
2022-11-23T05:43:07.923Z,4.20
2022-11-23T05:45:35.863Z,4.30
2022-11-23T05:48:03.964Z,4.20
2022-11-23T05:50:53.761Z,4.20
2022-11-23T05:53:34.798Z,4.20
2022-11-23T05:56:24.590Z,4.20
2022-11-23T05:59:05.375Z,4.20
2022-11-23T06:01:35.335Z,4.20
2022-11-23T06:04:04.097Z,4.20
2022-11-23T06:06:36.395Z,4.20
2022-11-23T06:09:04.097Z,4.10
2022-11-23T06:11:32.570Z,4.20
2022-11-23T06:14:07.773Z,4.20
2022-11-23T06:16:39.248Z,4.20
2022-11-23T06:19:30.345Z,4.20
2022-11-23T06:21:58.522Z,4.20
2022-11-23T06:24:27.239Z,4.10
2022-11-23T06:27:19.941Z,4.20
2022-11-23T06:29:49.204Z,4.20
2022-11-23T06:32:16.734Z,4.20
2022-11-23T06:34:43.759Z,4.20
2022-11-23T06:37:11.206Z,4.20
2022-11-23T06:39:38.339Z,4.20
2022-11-23T06:42:31.367Z,4.20
2022-11-23T06:44:54.243Z,4.20
2022-11-23T06:47:26.431Z,4.20
2022-11-23T06:49:55.506Z,4.20
2022-11-23T06:52:27.567Z,4.20
2022-11-23T06:54:55.201Z,4.20
2022-11-23T06:57:24.157Z,4.20
2022-11-23T06:59:51.449Z,4.30
2022-11-23T07:02:24.145Z,4.30
2022-11-23T07:04:53.500Z,4.20
2022-11-23T07:07:21.275Z,4.20
2022-11-23T07:09:57.698Z,4.30
2022-11-23T07:12:40.872Z,4.30
2022-11-23T07:15:09.170Z,4.30
2022-11-23T07:17:41.753Z,4.20
2022-11-23T07:20:12.643Z,4.30
2022-11-23T07:25:45.040Z,4.30
2022-11-23T07:49:47.877Z,4.50
2022-11-23T07:57:01.460Z,4.60
2022-11-23T08:09:20.108Z,5.30
2022-11-23T09:21:57.872Z,5.10
2022-11-23T09:24:28.167Z,5.10
2022-11-23T09:26:57.809Z,5.00
2022-11-23T09:29:28.576Z,5.10
2022-11-23T09:31:57.904Z,5.10
2022-11-23T09:34:26.717Z,4.60
2022-11-23T09:36:56.359Z,5.10
2022-11-23T09:39:23.450Z,5.20
2022-11-23T09:42:28.885Z,5.10
2022-11-23T09:45:20.961Z,5.20
2022-11-23T09:47:51.938Z,5.20
2022-11-23T09:50:51.389Z,5.20
2022-11-23T09:53:29.769Z,5.10
2022-11-23T09:55:58.467Z,5.20
2022-11-23T09:58:35.575Z,5.20
2022-11-23T10:01:05.673Z,5.20
2022-11-23T10:03:43.909Z,5.10
2022-11-23T10:06:51.366Z,5.20
2022-11-23T10:09:47.180Z,5.20
2022-11-23T10:12:39.792Z,5.20
2022-11-23T10:15:20.927Z,5.30
2022-11-23T10:18:05.962Z,4.60
2022-11-23T10:20:44.704Z,5.20
2022-11-23T10:23:26.780Z,5.20
2022-11-23T10:25:54.250Z,5.20
2022-11-23T10:28:23.366Z,5.20
2022-11-23T10:31:14.917Z,5.20
2022-11-23T10:33:54.002Z,5.20
2022-11-23T10:36:22.156Z,5.20
2022-11-23T10:39:05.636Z,6.60
2022-11-23T10:45:25.102Z,5.10
2022-11-23T10:48:34.626Z,5.30
2022-11-23T10:51:26.872Z,5.30
2022-11-23T10:54:05.238Z,5.30
2022-11-23T10:56:35.944Z,4.20
2022-11-23T10:59:03.985Z,4.40
2022-11-23T11:01:31.652Z,5.30
2022-11-23T11:04:07.082Z,5.20
2022-11-23T11:06:36.499Z,5.30
2022-11-23T11:09:21.404Z,5.40
2022-11-23T11:11:57.534Z,5.30
2022-11-23T11:14:24.642Z,5.50
2022-11-23T11:17:00.480Z,5.50
2022-11-23T11:19:35.633Z,5.50
2022-11-23T11:22:37.180Z,5.50
2022-11-23T11:25:09.776Z,5.30
2022-11-23T11:27:50.881Z,5.70
2022-11-23T11:30:26.671Z,5.70
2022-11-23T11:33:01.691Z,5.70
2022-11-23T11:35:38.324Z,5.70
2022-11-23T11:38:38.077Z,5.70
2022-11-23T11:41:32.964Z,5.80
2022-11-23T11:44:13.545Z,5.80
2022-11-23T11:46:46.397Z,5.80
2022-11-23T11:49:21.793Z,5.70
2022-11-23T11:52:09.079Z,5.70
2022-11-23T11:54:53.550Z,6.20
2022-11-23T11:57:30.985Z,5.70
2022-11-23T12:00:01.738Z,5.80
2022-11-23T12:02:46.175Z,5.70
2022-11-23T12:05:33.438Z,5.50
2022-11-23T12:08:33.761Z,5.80
2022-11-23T12:11:06.229Z,5.80
2022-11-23T12:13:41.173Z,5.80
2022-11-23T12:16:37.353Z,5.70
2022-11-23T12:19:20.563Z,5.80
2022-11-23T12:22:04.064Z,5.80
2022-11-23T12:24:52.384Z,5.80
2022-11-23T12:27:51.823Z,5.70
2022-11-23T12:30:55.956Z,5.80
2022-11-23T12:33:53.854Z,5.70
2022-11-23T12:36:55.627Z,5.80
2022-11-23T12:39:28.573Z,5.80
2022-11-23T12:42:29.290Z,6.30
2022-11-23T12:45:24.397Z,5.80
2022-11-23T12:47:58.587Z,5.80
2022-11-23T12:51:13.047Z,5.90
2022-11-23T12:54:28.737Z,5.80
2022-11-23T12:57:01.645Z,5.90
2022-11-23T13:00:27.208Z,5.90
2022-11-23T13:03:30.877Z,5.90
2022-11-23T13:06:07.369Z,6.00
2022-11-23T13:09:12.224Z,5.90
2022-11-23T13:12:17.631Z,5.80
2022-11-23T13:15:14.741Z,5.90
2022-11-23T13:18:01.173Z,5.90
2022-11-23T13:20:49.871Z,5.90
2022-11-23T13:23:21.761Z,5.90
2022-11-23T13:26:15.012Z,5.90
2022-11-23T13:28:43.977Z,5.90
2022-11-23T13:31:17.614Z,5.90
2022-11-23T13:33:47.041Z,5.00
2022-11-23T13:36:56.556Z,6.20
2022-11-23T13:39:53.234Z,6.00
2022-11-23T13:42:20.682Z,5.90
2022-11-23T13:44:48.293Z,5.90
2022-11-23T13:47:16.386Z,5.90
2022-11-23T13:49:47.839Z,6.00
2022-11-23T13:52:25.887Z,5.90
2022-11-23T13:55:08.923Z,5.90
2022-11-23T13:57:39.848Z,5.90
2022-11-23T14:00:46.944Z,6.00
2022-11-23T14:03:43.274Z,5.90
2022-11-23T14:06:26.630Z,5.90
2022-11-23T14:09:08.947Z,7.30
2022-11-23T14:12:04.332Z,4.60
2022-11-23T14:15:09.875Z,6.00
2022-11-23T14:24:26.811Z,6.00
2022-11-23T14:30:43.969Z,5.90
2022-11-23T14:33:19.664Z,6.00
2022-11-23T14:36:13.263Z,5.90
2022-11-23T14:39:18.157Z,5.90
2022-11-23T14:41:50.190Z,5.90
2022-11-23T14:44:26.536Z,5.90
2022-11-23T14:47:07.276Z,6.00
2022-11-23T14:49:35.648Z,5.90
2022-11-23T14:52:05.561Z,5.90
2022-11-23T14:54:33.652Z,5.90
2022-11-23T14:57:03.795Z,5.80
2022-11-23T14:59:38.129Z,5.80
2022-11-23T15:02:17.632Z,4.70
2022-11-23T15:05:11.539Z,5.90
2022-11-23T15:07:53.263Z,6.40
2022-11-23T15:10:43.764Z,5.90
2022-11-23T15:13:47.945Z,5.90
2022-11-23T15:16:17.754Z,5.90
2022-11-23T15:18:45.380Z,5.90
2022-11-23T15:21:12.414Z,5.90
2022-11-23T15:23:49.770Z,5.90
2022-11-23T15:29:36.295Z,5.90
2022-11-23T15:32:30.605Z,5.90
2022-11-23T15:35:01.878Z,5.90
2022-11-23T15:37:29.551Z,5.90
2022-11-23T15:39:57.225Z,5.90
2022-11-23T15:42:25.937Z,5.90
2022-11-23T15:44:55.033Z,5.90
2022-11-23T15:47:31.042Z,5.80
2022-11-23T15:50:08.657Z,5.90
2022-11-23T15:52:37.718Z,5.90
2022-11-23T15:55:14.027Z,5.90
2022-11-23T15:57:42.079Z,5.90
2022-11-23T16:00:22.610Z,5.90
2022-11-23T16:02:50.170Z,5.90
2022-11-23T16:05:23.054Z,5.80
2022-11-23T16:07:54.324Z,5.80
2022-11-23T16:10:32.867Z,5.80
2022-11-23T16:13:03.042Z,5.80
2022-11-23T16:15:38.987Z,5.80
2022-11-23T16:18:14.254Z,5.80
2022-11-23T16:20:47.015Z,5.80
2022-11-23T16:23:21.635Z,5.80
2022-11-23T16:26:04.486Z,5.80
2022-11-23T16:28:33.963Z,5.80
2022-11-23T16:31:01.259Z,5.80
2022-11-23T16:33:28.970Z,5.80
2022-11-23T16:35:56.347Z,5.80
2022-11-23T16:38:24.734Z,5.80
2022-11-23T16:40:52.222Z,5.80
2022-11-23T16:43:19.434Z,5.80
2022-11-23T16:45:49.165Z,5.80
2022-11-23T16:48:25.855Z,5.80
2022-11-23T16:50:55.048Z,5.80
2022-11-23T16:53:22.548Z,5.80
2022-11-23T16:56:00.484Z,5.80
2022-11-23T16:58:32.127Z,5.80
2022-11-23T17:01:01.668Z,5.80
2022-11-23T17:03:29.907Z,5.80
2022-11-23T17:05:57.352Z,5.80
2022-11-23T17:08:24.684Z,5.80
2022-11-23T17:10:52.314Z,5.80
2022-11-23T17:13:24.422Z,5.80
2022-11-23T17:15:52.206Z,5.80
2022-11-23T17:18:20.561Z,5.70
2022-11-23T17:20:49.988Z,5.70
2022-11-23T17:23:17.579Z,5.70
2022-11-23T17:25:45.971Z,5.80
2022-11-23T17:28:21.737Z,5.70
2022-11-23T17:30:49.360Z,5.80
2022-11-23T17:33:18.909Z,5.70
2022-11-23T17:35:46.774Z,5.70
2022-11-23T17:38:23.138Z,5.70
2022-11-23T17:40:53.894Z,5.70
2022-11-23T17:43:22.610Z,5.70
2022-11-23T17:45:49.788Z,5.70
2022-11-23T17:48:17.968Z,5.70
2022-11-23T17:50:47.877Z,5.70
2022-11-23T17:53:20.028Z,5.70
2022-11-23T17:55:50.485Z,5.70
2022-11-23T17:58:17.547Z,5.70
2022-11-23T18:00:54.020Z,5.70
2022-11-23T18:03:22.338Z,5.70
2022-11-23T18:05:49.962Z,5.70
2022-11-23T18:08:18.360Z,5.70
2022-11-23T18:10:45.763Z,5.70
2022-11-23T18:13:13.152Z,5.70
2022-11-23T18:15:40.526Z,5.60
2022-11-23T18:18:08.701Z,5.70
2022-11-23T18:20:36.659Z,5.60
2022-11-23T18:23:06.289Z,5.60
2022-11-23T18:25:33.903Z,5.70
2022-11-23T18:28:01.445Z,5.60
2022-11-23T18:30:29.516Z,5.60
2022-11-23T18:32:56.572Z,5.60
2022-11-23T18:35:23.854Z,5.60
2022-11-23T18:37:50.870Z,5.60
2022-11-23T18:40:18.303Z,5.60
2022-11-23T18:42:45.920Z,5.60
2022-11-23T18:45:13.493Z,5.60
2022-11-23T18:47:41.378Z,5.60
2022-11-23T18:50:11.036Z,5.60
2022-11-23T18:52:41.838Z,5.60
2022-11-23T18:55:10.035Z,5.60
2022-11-23T18:57:40.288Z,5.60
2022-11-23T19:00:08.477Z,5.60
2022-11-23T19:02:35.949Z,5.60
2022-11-23T19:05:03.480Z,5.60
2022-11-23T19:07:30.927Z,5.60
2022-11-23T19:09:58.368Z,5.60
2022-11-23T19:12:25.790Z,5.50
2022-11-23T19:14:54.519Z,5.60
2022-11-23T19:17:22.074Z,5.60
2022-11-23T19:19:49.712Z,5.60
2022-11-23T19:22:17.338Z,5.50
2022-11-23T19:24:46.314Z,5.60
2022-11-23T19:27:13.789Z,5.60
2022-11-23T19:29:41.992Z,5.60
2022-11-23T19:32:10.508Z,5.50
2022-11-23T19:34:39.621Z,5.50
2022-11-23T19:37:07.554Z,5.50
2022-11-23T19:39:37.329Z,5.60
2022-11-23T19:42:04.616Z,5.50
2022-11-23T19:44:33.341Z,5.60
2022-11-23T19:47:03.270Z,5.60
2022-11-23T19:49:32.155Z,5.50
2022-11-23T19:51:59.905Z,5.60
2022-11-23T19:54:28.467Z,5.60
2022-11-23T19:56:55.997Z,5.60
2022-11-23T19:59:28.198Z,5.60
2022-11-23T20:01:55.849Z,5.60
2022-11-23T20:04:26.933Z,5.60
2022-11-23T20:06:56.640Z,5.60
2022-11-23T20:09:24.679Z,5.60
2022-11-23T20:11:53.615Z,5.60
2022-11-23T20:14:21.491Z,5.60
2022-11-23T20:19:34.666Z,5.60
2022-11-23T20:22:02.434Z,5.50
2022-11-23T20:24:31.214Z,5.60
2022-11-23T20:26:58.924Z,5.60
2022-11-23T20:29:28.554Z,5.60
2022-11-23T20:31:59.249Z,5.60
2022-11-23T20:34:27.517Z,5.60
2022-11-23T20:36:55.029Z,5.60
2022-11-23T20:39:22.352Z,6.10
2022-11-23T20:41:50.347Z,5.60
2022-11-23T20:44:20.987Z,5.60
2022-11-23T20:47:04.791Z,5.60
2022-11-23T20:49:32.963Z,5.60
2022-11-23T20:52:01.400Z,5.60
2022-11-23T20:54:29.183Z,5.60
2022-11-23T20:56:59.269Z,5.60
2022-11-23T20:59:26.858Z,5.60
2022-11-23T21:01:56.001Z,5.60
2022-11-23T21:04:24.309Z,5.60
2022-11-23T21:06:52.454Z,5.60
2022-11-23T21:09:21.331Z,5.60
2022-11-23T21:12:08.218Z,5.60
2022-11-23T21:14:38.260Z,5.60
2022-11-23T21:17:07.290Z,5.60
2022-11-23T21:19:35.466Z,5.60
2022-11-23T21:22:12.625Z,5.60
2022-11-23T21:24:52.057Z,5.60
2022-11-23T21:27:23.517Z,5.60
2022-11-23T21:29:51.488Z,5.60
2022-11-23T21:32:18.751Z,5.60
2022-11-23T21:34:46.301Z,5.60
2022-11-23T21:37:14.725Z,5.60
2022-11-23T21:39:52.503Z,5.70
2022-11-23T21:42:20.030Z,5.70
2022-11-23T21:44:48.088Z,5.60
2022-11-23T21:47:16.734Z,5.70
2022-11-23T21:49:48.111Z,5.70
2022-11-23T21:52:15.108Z,5.70
2022-11-23T21:54:48.740Z,5.60
2022-11-23T21:57:17.353Z,5.60
2022-11-23T21:59:44.534Z,5.60
2022-11-23T22:02:14.821Z,5.60
2022-11-23T22:04:41.822Z,5.70
2022-11-23T22:07:10.309Z,5.70
2022-11-23T22:09:38.131Z,5.70
2022-11-23T22:12:05.372Z,5.60
2022-11-23T22:14:33.839Z,5.70
2022-11-23T22:17:02.889Z,5.60
2022-11-23T22:19:30.004Z,5.60
2022-11-23T22:21:57.092Z,5.70
2022-11-23T22:24:24.326Z,5.70
2022-11-23T22:26:52.635Z,5.70
2022-11-23T22:29:19.673Z,5.70
2022-11-23T22:31:50.599Z,5.70
2022-11-23T22:34:17.793Z,5.70
2022-11-23T22:36:50.067Z,5.70
2022-11-23T22:39:18.194Z,5.70
2022-11-23T22:41:45.267Z,5.70
2022-11-23T22:44:12.514Z,5.70
2022-11-23T22:46:40.301Z,5.70
2022-11-23T22:49:07.849Z,5.70
2022-11-23T22:51:35.096Z,5.70
2022-11-23T22:54:02.909Z,5.60
2022-11-23T22:56:31.445Z,5.70
2022-11-23T22:58:59.848Z,5.70
2022-11-23T23:01:29.503Z,5.70
2022-11-23T23:03:59.230Z,5.70
2022-11-23T23:06:29.501Z,5.70
2022-11-23T23:08:59.014Z,5.70
2022-11-23T23:11:27.657Z,5.70
2022-11-23T23:13:56.029Z,5.80
2022-11-23T23:16:25.694Z,5.70
2022-11-23T23:18:55.121Z,5.70
2022-11-23T23:21:26.206Z,5.70
2022-11-23T23:23:57.661Z,5.70
2022-11-23T23:26:28.018Z,5.70
2022-11-23T23:28:58.174Z,5.70
2022-11-23T23:31:27.331Z,5.70
2022-11-23T23:40:27.904Z,5.70
2022-11-23T23:42:58.401Z,5.70
2022-11-23T23:45:25.887Z,5.70
2022-11-23T23:47:54.585Z,5.70
2022-11-23T23:50:21.878Z,5.60
2022-11-23T23:52:49.768Z,5.70
2022-11-23T23:55:17.818Z,5.70
2022-11-23T23:57:46.312Z,5.70
